createdAt,value
2022-08-01T00:00:09.158Z,8.52
2022-08-01T00:02:37.588Z,8.40
2022-08-01T00:05:07.005Z,7.97
2022-08-01T00:07:34.622Z,7.15
2022-08-01T00:10:01.408Z,7.20
2022-08-01T00:12:28.005Z,7.35
2022-08-01T00:14:54.595Z,7.40
2022-08-01T00:17:21.181Z,7.78
2022-08-01T00:19:47.794Z,7.90
2022-08-01T00:22:14.431Z,7.43
2022-08-01T00:24:41.015Z,6.78
2022-08-01T00:27:07.609Z,6.75
2022-08-01T00:30:12.476Z,6.57
2022-08-01T00:32:20.856Z,6.88
2022-08-01T00:34:47.477Z,7.05
2022-08-01T00:37:14.122Z,6.43
2022-08-01T00:39:43.578Z,7.07
2022-08-01T00:44:38.210Z,6.53
2022-08-01T00:47:05.583Z,6.75
2022-08-01T00:51:59.455Z,6.53
2022-08-01T00:54:27.396Z,6.45
2022-08-01T00:56:55.583Z,6.30
2022-08-01T00:59:24.008Z,6.65
2022-08-01T01:01:53.690Z,6.38
2022-08-01T01:04:20.879Z,6.32
2022-08-01T01:07:08.713Z,6.78
2022-08-01T01:09:46.974Z,6.22
2022-08-01T01:12:39.171Z,6.00
2022-08-01T01:15:16.804Z,5.82
2022-08-01T01:18:15.722Z,6.57
2022-08-01T01:20:45.603Z,6.75
2022-08-01T01:23:18.284Z,6.70
2022-08-01T01:26:26.032Z,6.65
2022-08-01T01:29:01.774Z,6.15
2022-08-01T01:31:30.299Z,6.30
2022-08-01T01:34:00.675Z,6.03
2022-08-01T01:36:29.143Z,5.78
2022-08-01T01:38:56.675Z,5.80
2022-08-01T01:41:25.007Z,6.32
2022-08-01T01:43:53.473Z,6.32
2022-08-01T01:46:24.744Z,6.15
2022-08-01T01:48:52.073Z,6.20
2022-08-01T01:53:46.677Z,6.13
2022-08-01T01:56:17.333Z,5.97
2022-08-01T01:58:45.114Z,6.05
2022-08-01T02:01:14.642Z,6.47
2022-08-01T02:03:44.348Z,6.07
2022-08-01T02:06:14.741Z,6.30
2022-08-01T02:08:43.925Z,6.68
2022-08-01T02:11:20.450Z,6.05
2022-08-01T02:13:53.666Z,6.22
2022-08-01T02:16:22.433Z,5.78
2022-08-01T02:18:49.048Z,5.75
2022-08-01T02:21:24.523Z,5.82
2022-08-01T02:23:52.802Z,5.88
2022-08-01T02:26:20.502Z,6.18
2022-08-01T02:28:53.029Z,5.90
2022-08-01T02:31:22.490Z,5.97
2022-08-01T02:33:59.721Z,6.35
2022-08-01T02:39:01.777Z,5.90
2022-08-01T02:41:31.234Z,6.03
2022-08-01T02:44:01.981Z,5.88
2022-08-01T02:46:39.580Z,6.63
2022-08-01T02:49:10.145Z,5.85
2022-08-01T02:51:39.953Z,6.20
2022-08-01T02:54:09.387Z,5.97
2022-08-01T02:56:37.749Z,6.30
2022-08-01T02:59:10.362Z,6.28
2022-08-01T03:01:38.671Z,6.30
2022-08-01T03:04:09.945Z,5.90
2022-08-01T03:06:38.419Z,6.32
2022-08-01T03:09:07.944Z,5.88
2022-08-01T03:11:38.523Z,5.78
2022-08-01T03:14:09.961Z,5.85
2022-08-01T03:16:40.850Z,6.50
2022-08-01T03:19:10.944Z,6.63
2022-08-01T03:21:39.493Z,6.22
2022-08-01T03:24:07.484Z,6.10
2022-08-01T03:26:37.255Z,6.07
2022-08-01T03:29:11.759Z,6.43
2022-08-01T03:31:43.721Z,6.15
2022-08-01T03:34:10.671Z,6.50
2022-08-01T03:36:47.964Z,5.68
2022-08-01T03:39:18.643Z,6.18
2022-08-01T03:41:56.338Z,5.88
2022-08-01T03:44:27.396Z,6.22
2022-08-01T03:47:07.905Z,6.10
2022-08-01T03:49:39.150Z,6.15
2022-08-01T03:52:08.655Z,6.40
2022-08-01T03:54:39.621Z,6.50
2022-08-01T03:57:06.921Z,6.47
2022-08-01T03:59:37.483Z,6.20
2022-08-01T04:02:05.479Z,6.40
2022-08-01T04:04:32.628Z,5.72
2022-08-01T04:07:05.033Z,5.70
2022-08-01T04:09:32.773Z,5.72
2022-08-01T04:12:01.146Z,5.63
2022-08-01T04:14:36.968Z,6.00
2022-08-01T04:17:03.561Z,5.95
2022-08-01T04:19:30.152Z,6.25
2022-08-01T04:21:57.692Z,5.80
2022-08-01T04:24:26.584Z,5.78
2022-08-01T04:26:53.696Z,5.75
2022-08-01T04:29:22.963Z,5.95
2022-08-01T04:31:50.915Z,5.80
2022-08-01T04:34:21.683Z,5.88
2022-08-01T04:36:51.052Z,5.90
2022-08-01T04:39:20.799Z,5.82
2022-08-01T04:41:48.077Z,5.30
2022-08-01T04:44:15.221Z,5.20
2022-08-01T04:46:42.906Z,5.32
2022-08-01T04:49:12.845Z,5.13
2022-08-01T04:51:52.008Z,5.50
2022-08-01T04:54:19.115Z,5.10
2022-08-01T04:56:45.782Z,4.70
2022-08-01T04:59:36.532Z,5.28
2022-08-01T05:02:03.316Z,5.00
2022-08-01T05:04:30.043Z,4.85
2022-08-01T05:06:56.589Z,4.68
2022-08-01T05:09:23.251Z,4.63
2022-08-01T05:11:49.868Z,5.05
2022-08-01T05:14:16.528Z,4.72
2022-08-01T05:16:43.134Z,4.95
2022-08-01T05:19:09.994Z,4.90
2022-08-01T05:21:36.657Z,4.68
2022-08-01T05:24:03.446Z,4.45
2022-08-01T05:26:30.035Z,4.40
2022-08-01T05:28:58.611Z,4.90
2022-08-01T05:31:25.241Z,4.57
2022-08-01T05:33:51.833Z,4.47
2022-08-01T05:36:18.426Z,4.55
2022-08-01T05:38:45.049Z,4.28
2022-08-01T05:41:11.832Z,4.28
2022-08-01T05:43:38.428Z,4.22
2022-08-01T05:46:05.046Z,3.60
2022-08-01T05:48:31.697Z,3.60
2022-08-01T05:50:59.022Z,3.88
2022-08-01T05:53:26.146Z,3.80
2022-08-01T05:55:52.748Z,3.40
2022-08-01T05:58:19.375Z,3.38
2022-08-01T06:00:45.940Z,3.05
2022-08-01T06:03:12.524Z,2.92
2022-08-01T06:05:39.221Z,3.70
2022-08-01T06:08:05.868Z,2.80
2022-08-01T06:10:32.561Z,2.67
2022-08-01T06:12:59.563Z,3.00
2022-08-01T06:15:26.261Z,4.00
2022-08-01T06:17:52.931Z,2.70
2022-08-01T06:20:19.667Z,2.55
2022-08-01T06:22:46.225Z,2.20
2022-08-01T06:25:21.402Z,2.45
2022-08-01T06:27:48.514Z,2.50
2022-08-01T06:30:15.901Z,2.30
2022-08-01T06:32:42.529Z,2.20
2022-08-01T06:35:09.570Z,2.00
2022-08-01T06:40:04.725Z,2.45
2022-08-01T06:42:36.558Z,2.17
2022-08-01T06:45:10.626Z,2.08
2022-08-01T06:47:38.617Z,2.22
2022-08-01T06:50:06.773Z,2.08
2022-08-01T06:52:37.622Z,1.90
2022-08-01T06:55:05.229Z,2.30
2022-08-01T06:57:31.908Z,1.98
2022-08-01T06:59:59.022Z,1.90
2022-08-01T07:02:25.585Z,2.00
2022-08-01T07:04:52.197Z,1.80
2022-08-01T07:07:18.999Z,1.92
2022-08-01T07:09:45.788Z,1.80
2022-08-01T07:12:12.463Z,1.80
2022-08-01T07:14:39.043Z,1.83
2022-08-01T07:17:05.617Z,1.80
2022-08-01T07:19:32.234Z,1.90
2022-08-01T07:21:58.861Z,1.80
2022-08-01T07:24:25.579Z,1.85
2022-08-01T07:26:56.035Z,2.03
2022-08-01T07:29:24.647Z,1.83
2022-08-01T07:31:55.340Z,1.77
2022-08-01T07:34:22.931Z,1.85
2022-08-01T07:36:50.642Z,1.92
2022-08-01T07:39:17.481Z,2.00
2022-08-01T07:42:04.621Z,2.00
2022-08-01T07:46:57.095Z,2.15
2022-08-01T07:49:23.780Z,2.00
2022-08-01T07:52:04.169Z,2.03
2022-08-01T07:54:34.825Z,2.20
2022-08-01T07:57:02.530Z,2.13
2022-08-01T07:59:29.319Z,2.08
2022-08-01T08:01:56.014Z,2.10
2022-08-01T08:04:22.980Z,2.20
2022-08-01T08:06:50.267Z,2.05
2022-08-01T08:09:17.197Z,2.00
2022-08-01T08:11:47.729Z,1.98
2022-08-01T08:14:15.132Z,2.20
2022-08-01T08:16:41.835Z,2.25
2022-08-01T08:19:08.474Z,2.38
2022-08-01T08:21:35.105Z,2.20
2022-08-01T08:24:20.372Z,2.08
2022-08-01T08:26:57.984Z,2.30
2022-08-01T08:29:25.684Z,2.15
2022-08-01T08:31:54.358Z,2.47
2022-08-01T08:34:21.477Z,2.40
2022-08-01T08:36:50.154Z,2.40
2022-08-01T08:39:19.915Z,2.20
2022-08-01T08:41:49.319Z,2.30
2022-08-01T08:44:17.814Z,2.65
2022-08-01T08:46:46.608Z,2.28
2022-08-01T08:49:19.896Z,2.28
2022-08-01T08:51:50.177Z,2.42
2022-08-01T08:54:19.394Z,2.45
2022-08-01T08:56:47.293Z,2.20
2022-08-01T08:59:14.742Z,2.10
2022-08-01T09:01:42.874Z,2.30
2022-08-01T09:04:10.754Z,2.28
2022-08-01T09:06:37.886Z,2.28
2022-08-01T09:11:32.368Z,2.22
2022-08-01T09:14:28.126Z,2.40
2022-08-01T09:17:11.337Z,2.17
2022-08-01T09:19:43.798Z,2.30
2022-08-01T09:22:24.770Z,2.13
2022-08-01T09:25:01.776Z,2.33
2022-08-01T09:27:29.186Z,2.20
2022-08-01T09:30:07.374Z,1.95
2022-08-01T09:32:36.408Z,2.20
2022-08-01T09:35:45.460Z,2.05
2022-08-01T09:38:17.323Z,2.10
2022-08-01T09:40:53.288Z,2.45
2022-08-01T09:43:22.194Z,2.28
2022-08-01T09:45:53.032Z,2.28
2022-08-01T09:48:22.736Z,2.10
2022-08-01T09:50:55.704Z,2.30
2022-08-01T09:53:30.042Z,1.90
2022-08-01T09:56:10.331Z,2.17
2022-08-01T09:58:53.854Z,2.20
2022-08-01T10:01:25.015Z,2.30
2022-08-01T10:04:17.410Z,1.90
2022-08-01T10:06:48.139Z,2.38
2022-08-01T10:09:35.947Z,2.17
2022-08-01T10:12:07.774Z,2.45
2022-08-01T10:14:37.164Z,2.15
2022-08-01T10:17:05.717Z,2.22
2022-08-01T10:19:33.682Z,2.00
2022-08-01T10:22:01.722Z,2.00
2022-08-01T10:24:30.772Z,2.13
2022-08-01T10:27:09.086Z,2.08
2022-08-01T10:30:05.922Z,2.03
2022-08-01T10:32:39.452Z,2.10
2022-08-01T10:35:14.877Z,2.10
2022-08-01T10:37:52.140Z,1.90
2022-08-01T10:40:36.964Z,2.10
2022-08-01T10:43:04.169Z,2.00
2022-08-01T10:48:00.066Z,1.80
2022-08-01T10:50:48.543Z,1.77
2022-08-01T10:53:30.958Z,2.03
2022-08-01T10:56:04.149Z,1.83
2022-08-01T10:58:44.324Z,1.90
2022-08-01T11:01:20.424Z,1.85
2022-08-01T11:04:02.337Z,2.00
2022-08-01T11:06:35.078Z,1.80
2022-08-01T11:09:10.966Z,2.30
2022-08-01T11:12:13.443Z,1.90
2022-08-01T11:15:02.942Z,2.17
2022-08-01T11:17:37.539Z,2.05
2022-08-01T11:20:17.327Z,2.00
2022-08-01T11:23:06.237Z,2.25
2022-08-01T11:26:03.076Z,1.83
2022-08-01T11:28:33.129Z,2.00
2022-08-01T11:31:10.767Z,2.17
2022-08-01T11:33:45.973Z,2.15
2022-08-01T11:36:14.501Z,2.13
2022-08-01T11:38:47.025Z,2.00
2022-08-01T11:41:37.474Z,2.00
2022-08-01T11:44:11.757Z,2.20
2022-08-01T11:47:08.911Z,2.20
2022-08-01T11:49:55.950Z,2.00
2022-08-01T11:52:30.891Z,2.10
2022-08-01T11:54:59.237Z,1.95
2022-08-01T11:57:34.021Z,2.47
2022-08-01T12:00:08.340Z,2.10
2022-08-01T12:02:36.228Z,2.05
2022-08-01T12:05:19.371Z,1.98
2022-08-01T12:07:50.203Z,2.00
2022-08-01T12:10:19.298Z,1.90
2022-08-01T12:12:51.087Z,2.00
2022-08-01T12:15:19.285Z,2.17
2022-08-01T12:17:58.153Z,2.25
2022-08-01T12:20:30.973Z,1.90
2022-08-01T12:23:00.361Z,1.90
2022-08-01T12:25:27.206Z,2.13
2022-08-01T12:27:56.665Z,1.98
2022-08-01T12:30:25.349Z,2.10
2022-08-01T12:32:53.612Z,1.98
2022-08-01T12:35:24.078Z,2.25
2022-08-01T12:37:53.302Z,2.00
2022-08-01T12:40:32.075Z,2.03
2022-08-01T12:43:04.198Z,1.85
2022-08-01T12:45:33.812Z,2.20
2022-08-01T12:48:01.900Z,1.90
2022-08-01T12:50:31.012Z,2.00
2022-08-01T12:52:58.779Z,2.00
2022-08-01T12:55:34.285Z,2.20
2022-08-01T12:58:16.174Z,1.80
2022-08-01T13:00:45.565Z,1.95
2022-08-01T13:03:15.507Z,1.90
2022-08-01T13:05:45.981Z,1.92
2022-08-01T13:08:17.388Z,2.00
2022-08-01T13:10:45.110Z,1.80
2022-08-01T13:13:22.334Z,1.90
2022-08-01T13:16:05.525Z,2.03
2022-08-01T13:18:34.410Z,1.92
2022-08-01T13:21:21.474Z,1.80
2022-08-01T13:24:13.598Z,1.88
2022-08-01T13:26:59.606Z,2.03
2022-08-01T13:29:38.931Z,2.22
2022-08-01T13:32:29.381Z,2.10
2022-08-01T13:35:03.729Z,2.38
2022-08-01T13:37:30.356Z,2.45
2022-08-01T13:39:58.953Z,2.35
2022-08-01T13:42:25.610Z,2.08
2022-08-01T13:44:52.236Z,2.08
2022-08-01T13:47:18.835Z,2.60
2022-08-01T13:49:56.013Z,2.38
2022-08-01T13:52:22.613Z,2.85
2022-08-01T13:54:49.219Z,2.38
2022-08-01T13:57:17.584Z,2.20
2022-08-01T13:59:44.267Z,2.20
2022-08-01T14:02:10.867Z,2.53
2022-08-01T14:04:37.439Z,2.30
2022-08-01T14:07:07.766Z,2.30
2022-08-01T14:09:37.453Z,2.60
2022-08-01T14:14:51.073Z,2.72
2022-08-01T14:17:17.677Z,2.40
2022-08-01T14:19:46.366Z,1.92
2022-08-01T14:22:13.100Z,2.30
2022-08-01T14:24:39.682Z,2.42
2022-08-01T14:27:07.707Z,1.90
2022-08-01T14:30:02.761Z,2.38
2022-08-01T14:32:23.171Z,2.40
2022-08-01T14:34:56.660Z,2.22
2022-08-01T14:37:28.618Z,2.40
2022-08-01T14:39:58.001Z,2.60
2022-08-01T14:42:25.933Z,2.83
2022-08-01T14:47:22.102Z,2.70
2022-08-01T14:49:49.960Z,2.35
2022-08-01T14:52:16.746Z,2.60
2022-08-01T14:54:43.403Z,2.20
2022-08-01T14:57:10.198Z,2.30
2022-08-01T14:59:36.996Z,2.13
2022-08-01T15:02:03.915Z,2.30
2022-08-01T15:04:31.558Z,2.00
2022-08-01T15:06:58.324Z,2.05
2022-08-01T15:09:25.358Z,2.38
2022-08-01T15:11:51.966Z,2.17
2022-08-01T15:14:36.813Z,2.30
2022-08-01T15:17:03.802Z,2.30
2022-08-01T15:21:56.868Z,2.60
2022-08-01T15:24:23.452Z,2.53
2022-08-01T15:26:50.010Z,2.40
2022-08-01T15:29:18.179Z,2.10
2022-08-01T15:31:44.762Z,2.10
2022-08-01T15:34:11.885Z,2.13
2022-08-01T15:39:11.156Z,1.80
2022-08-01T15:41:38.470Z,1.98
2022-08-01T15:44:05.240Z,2.00
2022-08-01T15:46:31.878Z,1.95
2022-08-01T15:48:58.477Z,1.80
2022-08-01T15:51:25.101Z,1.92
2022-08-01T15:53:52.013Z,1.80
2022-08-01T15:56:18.595Z,1.70
2022-08-01T15:58:45.248Z,1.70
2022-08-01T16:01:11.866Z,2.00
2022-08-01T16:03:38.466Z,1.60
2022-08-01T16:06:05.164Z,1.88
2022-08-01T16:08:31.887Z,1.98
2022-08-01T16:10:58.514Z,1.92
2022-08-01T16:13:25.088Z,1.90
2022-08-01T16:15:51.787Z,1.88
2022-08-01T16:18:18.570Z,1.70
2022-08-01T16:20:46.233Z,1.60
2022-08-01T16:23:14.575Z,1.73
2022-08-01T16:25:41.381Z,1.50
2022-08-01T16:28:09.871Z,1.55
2022-08-01T16:30:37.167Z,1.73
2022-08-01T16:33:07.304Z,1.70
2022-08-01T16:35:36.663Z,1.40
2022-08-01T16:38:04.980Z,1.58
2022-08-01T16:40:46.306Z,1.40
2022-08-01T16:43:15.134Z,1.55
2022-08-01T16:45:43.160Z,1.40
2022-08-01T16:48:15.610Z,1.50
2022-08-01T16:50:43.368Z,1.40
2022-08-01T16:53:11.513Z,1.52
2022-08-01T16:55:38.107Z,1.58
2022-08-01T16:58:19.731Z,1.80
2022-08-01T17:00:56.558Z,1.83
2022-08-01T17:03:51.567Z,1.60
2022-08-01T17:06:11.074Z,1.42
2022-08-01T17:08:46.532Z,1.60
2022-08-01T17:11:14.753Z,1.40
2022-08-01T17:13:41.469Z,1.75
2022-08-01T17:16:08.944Z,1.80
2022-08-01T17:18:35.659Z,3.55
2022-08-01T17:21:02.258Z,2.03
2022-08-01T17:23:28.896Z,4.07
2022-08-01T17:25:55.636Z,2.05
2022-08-01T17:28:23.199Z,1.77
2022-08-01T17:30:49.995Z,2.47
2022-08-01T17:33:16.947Z,3.58
2022-08-01T17:35:43.571Z,2.08
2022-08-01T17:38:10.216Z,1.67
2022-08-01T17:40:40.964Z,1.80
2022-08-01T17:43:09.037Z,2.13
2022-08-01T17:45:39.485Z,1.73
2022-08-01T17:48:18.600Z,1.90
2022-08-01T17:50:46.828Z,1.75
2022-08-01T17:53:20.803Z,1.85
2022-08-01T17:55:55.708Z,1.60
2022-08-01T17:58:49.871Z,1.60
2022-08-01T18:01:10.985Z,2.00
2022-08-01T18:03:41.424Z,1.85
2022-08-01T18:06:09.104Z,2.10
2022-08-01T18:08:35.924Z,2.00
2022-08-01T18:11:02.672Z,1.75
2022-08-01T18:13:29.512Z,2.10
2022-08-01T18:18:33.670Z,2.08
2022-08-01T18:21:02.005Z,1.95
2022-08-01T18:23:28.866Z,1.88
2022-08-01T18:25:55.494Z,1.80
2022-08-01T18:28:31.261Z,1.80
2022-08-01T18:31:01.050Z,1.83
2022-08-01T18:35:54.517Z,1.63
2022-08-01T18:38:24.225Z,1.65
2022-08-01T18:40:51.718Z,1.90
2022-08-01T18:43:18.376Z,1.80
2022-08-01T18:45:45.041Z,1.70
2022-08-01T18:48:12.456Z,1.90
2022-08-01T18:50:39.708Z,1.70
2022-08-01T18:53:06.905Z,2.10
2022-08-01T18:58:00.033Z,1.90
2022-08-01T19:00:26.634Z,1.95
2022-08-01T19:02:54.054Z,1.80
2022-08-01T19:05:20.703Z,1.75
2022-08-01T19:08:05.417Z,2.10
2022-08-01T19:10:35.750Z,1.88
2022-08-01T19:13:03.044Z,1.90
2022-08-01T19:15:29.896Z,1.83
2022-08-01T19:17:56.520Z,1.70
2022-08-01T19:20:23.264Z,2.20
2022-08-01T19:22:51.119Z,5.03
2022-08-01T19:25:17.921Z,2.40
2022-08-01T19:27:49.537Z,1.95
2022-08-01T19:30:17.605Z,2.20
2022-08-01T19:32:45.789Z,1.90
2022-08-01T19:35:14.953Z,2.00
2022-08-01T19:37:54.094Z,2.08
2022-08-01T19:40:27.077Z,2.20
2022-08-01T19:42:56.660Z,2.10
2022-08-01T19:45:24.859Z,2.10
2022-08-01T19:47:57.349Z,2.30
2022-08-01T19:50:28.518Z,2.22
2022-08-01T19:53:02.865Z,2.40
2022-08-01T19:55:31.206Z,2.05
2022-08-01T20:00:48.466Z,2.15
2022-08-01T20:03:17.900Z,2.17
2022-08-01T20:05:45.071Z,2.10
2022-08-01T20:13:09.602Z,2.35
2022-08-01T20:15:37.472Z,2.20
2022-08-01T20:18:04.256Z,2.35
2022-08-01T20:20:32.684Z,2.30
2022-08-01T20:23:03.022Z,2.28
2022-08-01T20:25:39.859Z,2.20
2022-08-01T20:28:10.972Z,2.28
2022-08-01T20:30:41.650Z,2.22
2022-08-01T20:33:10.783Z,2.17
2022-08-01T20:35:52.015Z,2.38
2022-08-01T20:38:27.611Z,2.50
2022-08-01T20:40:58.600Z,2.55
2022-08-01T20:43:28.425Z,2.47
2022-08-01T20:45:56.442Z,2.33
2022-08-01T20:48:26.062Z,2.63
2022-08-01T20:51:12.339Z,2.25
2022-08-01T20:53:42.111Z,2.78
2022-08-01T20:56:30.490Z,2.60
2022-08-01T20:59:10.785Z,2.83
2022-08-01T21:02:06.075Z,2.33
2022-08-01T21:04:44.092Z,2.63
2022-08-01T21:07:28.721Z,2.70
2022-08-01T21:10:07.148Z,2.63
2022-08-01T21:12:52.900Z,2.58
2022-08-01T21:16:04.236Z,2.50
2022-08-01T21:21:51.299Z,2.80
2022-08-01T21:24:19.285Z,2.60
2022-08-01T21:26:46.616Z,2.70
2022-08-01T21:29:14.220Z,2.50
2022-08-01T21:31:42.059Z,2.50
2022-08-01T21:34:09.548Z,2.40
2022-08-01T21:36:37.022Z,2.70
2022-08-01T21:39:06.555Z,2.55
2022-08-01T21:41:56.344Z,2.40
2022-08-01T21:44:20.159Z,2.50
2022-08-01T21:46:48.530Z,2.47
2022-08-01T21:49:15.308Z,2.72
2022-08-01T21:52:05.231Z,2.42
2022-08-01T21:54:49.254Z,2.60
2022-08-01T21:57:36.498Z,2.67
2022-08-01T22:00:21.011Z,2.35
2022-08-01T22:03:08.396Z,2.40
2022-08-01T22:05:50.411Z,2.42
2022-08-01T22:08:44.153Z,2.67
2022-08-01T22:11:14.433Z,2.70
2022-08-01T22:13:42.132Z,2.40
2022-08-01T22:16:11.299Z,2.35
2022-08-01T22:18:38.694Z,2.63
2022-08-01T22:23:36.744Z,2.50
2022-08-01T22:26:07.552Z,2.50
2022-08-01T22:28:36.071Z,2.50
2022-08-01T22:31:03.275Z,2.70
2022-08-01T22:33:30.037Z,2.70
2022-08-01T22:35:56.738Z,2.40
2022-08-01T22:38:24.422Z,2.30
2022-08-01T22:41:03.407Z,2.55
2022-08-01T22:43:32.660Z,2.47
2022-08-01T22:46:40.862Z,2.75
2022-08-01T22:49:29.012Z,2.60
2022-08-01T22:52:11.972Z,2.45
2022-08-01T22:54:40.839Z,2.63
2022-08-01T22:57:58.246Z,2.50
2022-08-01T23:00:29.465Z,2.65
2022-08-01T23:03:01.860Z,2.38
2022-08-01T23:05:30.631Z,2.60
2022-08-01T23:07:58.944Z,2.65
2022-08-01T23:10:26.392Z,2.83
2022-08-01T23:12:54.898Z,2.60
2022-08-01T23:15:22.946Z,2.80
2022-08-01T23:17:50.409Z,2.78
2022-08-01T23:20:18.250Z,2.60
2022-08-01T23:22:44.909Z,2.83
2022-08-01T23:25:16.789Z,2.80
2022-08-01T23:27:51.776Z,2.70
2022-08-01T23:30:34.102Z,2.45
2022-08-01T23:33:01.011Z,2.60
2022-08-01T23:35:29.216Z,2.42
2022-08-01T23:38:02.329Z,3.00
2022-08-01T23:40:32.394Z,2.50
2022-08-01T23:43:00.080Z,2.50
2022-08-01T23:45:26.800Z,3.20
2022-08-01T23:47:53.439Z,2.85
2022-08-01T23:50:22.092Z,2.80
2022-08-01T23:52:51.327Z,2.97
2022-08-01T23:55:19.817Z,2.83
2022-08-01T23:57:55.290Z,2.80
